Create Custom Reports and Graphics: Custom Report

North Region Latest Observations

Map

10 Minute Data

Winnemucca/Elko Latest Observations

Map

10 Minute Data

South Region Latest Observations

Map

10 Minute Data

Latest Observation

67 Stations

10 Minute Data
as of 5/7/26 8:59 PM PDT
Station Date Time Temp (°F) RH (%) Dew Pt (°F) Wind Spd (mph) Wind Dir (°) Wind Gust (mph) Wind Gst Dir (°) Latest Rain (In) Soil Moist (%) Soil Temp (°F) Daily Rain (In) Daily Min Temp (°F) Daily Max Temp (°F) Daily Max Wind (mph)
Hobart Mills 5/7/26 2050 49.4   5.7 66   1 38.6   5.7 1.4   0.4 W | 275 2.7   0.1 W | 273 0.00 - 32.0   0.0 0.03 37.8   10.6 69.6   0.0 8.2   0.0
Prosser Dam 5/7/26 2050 56.2   1.8 56   7 40.5   4.9 3.1   1.4 SW | 235 4.7   1.4 W | 259 0.00 23.4   1.1 52.5   1.2 0.00 36.9   0.8 70.2   0.6 21.7   1.6
West Incline Village 5/7/26 2050 49.4   4.3 70   1 40.0   4.3 1.4   1.3 NNE | 22 2.6   1.4 NNE | 28 0.00 33.4   0.9 45.8   1.3 0.00 44.8   3.1 65.2   2.2 19.0   6.1
Incline Village (Fairview Blvd) 5/7/26 2050 52.3   3.7 61   20 39.1   6.5 0.2   1.6 NE | 35 1.7   0.9 NE | 36 0.00 26.5   0.5 51.4   1.5 0.00 45.7   4.5 64.9   1.2 18.9   8.7
Incline Village (Diamond Peak) 5/7/26 2050 50.1   3.9 64   27 38.2   10.1 0.7   0.7 ENE | 72 3.2   3.2 E | 82 0.00 9.6   0.3 48.1   2.5 0.00 46.0   3.3 62.6   2.2 15.8   5.3
Incline Village (Mill Creek) 5/7/26 2050 53.2   0.7 69   18 43.4   8.2 1.9   0.9 SSW | 192 6.5   4.2 S | 187 0.00 11.2   0.2 46.1   1.1 0.00 45.0   4.6 64.9   0.5 16.4   7.8
Incline Village (Lakeshore Blvd) 5/7/26 2050 51.2   0.6 74   6 43.3   1.5 0.0   1.1 N | 0 0.0   2.6 NNW | 346 0.00 32.5   0.6 57.5   1.1 0.00 40.2   3.8 62.0   0.2 12.2   6.1
Glenbrook 5/7/26 2050 52.8   0.5 71   14 43.6   6.0 0.0   1.8 N | 0 0.0   3.5 NE | 54 0.00 44.3   0.0 45.6   0.9 0.00 41.6   3.2 64.2   0.9 6.6   1.2
Zephyr Cove 5/7/26 2040 54.1   2.2 56   4 38.9   3.7 0.1   0.1 ENE | 62 1.6   0.2 ENE | 61 0.00 - 34.3   0.0 0.00 43.7   2.1 66.7   1.6 7.0   2.0
Kingsbury Grade 5/7/26 2050 52.9   1.1 56   6 37.7   1.6 0.4   0.4 NW | 314 3.5   3.5 NNW | 341 0.00 6.3   2.6 56.9   3.1 0.00 41.3   3.2 68.3   2.5 10.9   1.9
South Daggett Pass (Ridge) 5/7/26 2050 50.5   2.8 58   13 36.5   7.6 3.0   0.1 W | 270 10.4   3.0 W | 262 0.00 6.7   0.1 48.4   2.1 0.00 45.2   3.8 61.8   1.5 22.5   11.6
Palomino Valley 5/7/26 2050 68.4   3.9 27   5 32.9   1.1 7.7   3.8 WSW | 246 21.5   16.3 WSW | 246 0.00 7.0   0.1 69.8   1.8 0.00 45.8   0.0 80.3   1.9 28.7   8.0
East Cold Springs 5/7/26 2050 62.1   0.1 37   16 35.5   9.0 9.9   5.0 WNW | 282 14.8   7.6 WNW | 285 0.00 1.8   0.1 60.0   1.3 0.00 49.8   2.4 75.0   1.9 24.8   4.5
Peavine 5/7/26 2100 58.9   2.3 41   8 35.5   6.4 15.8   10.3 SSW | 202 25.3   15.5 SSW | 198 0.00 - 53.4   0.0 0.00 52.2   2.7 71.7   2.1 25.3   6.8
West Verdi Peak 5/7/26 2050 56.2   3.8 42   12 33.5   10.1 3.3   1.0 W | 274 8.6   1.4 WNW | 284 0.00 20.9   1.0 56.1   1.6 0.00 47.6   4.6 70.1   0.2 23.7   7.6
West Verdi 5/7/26 2050 63.7   0.8 40   7 39.2   5.1 2.6   0.9 N | 351 7.5   1.1 N | 1 0.00 8.0   0.2 65.8   1.9 0.00 49.8   4.4 75.0   0.7 25.2   8.9
South Verdi 5/7/26 2050 61.7   3.8 44   2 39.4   1.9 11.7   3.9 WSW | 248 17.5   5.2 WSW | 248 0.00 16.8   0.3 66.0   0.5 0.00 50.0   3.4 72.0   0.4 34.9   13.0
Northwest Reno 5/7/26 2050 64.2   3.7 36   8 36.9   3.0 25.3   19.0 W | 269 30.4   22.4 W | 272 0.00 24.0   0.2 67.5   2.3 0.00 54.6   1.4 75.3   0.2 36.8   13.8
North Lawton 5/7/26 2050 62.9   2.2 42   9 39.6   3.9 11.4   5.1 SW | 225 20.1   10.7 SW | 231 0.00 - 39.1   0.0 0.00 52.7   4.0 75.7   1.4 29.3   2.5
West Reno (Mogul) 5/7/26 2050 64.3   1.2 35   1 36.3   2.1 9.0   1.3 W | 263 18.1   7.6 SW | 235 0.00 37.2   0.6 61.7   1.4 0.00 50.9   1.4 75.4   1.2 28.8   6.4
Caughlin (Hunter Lake Trail) 9/16/25 0800 59.7   3.5 41   11 35.9   2.7 0.0   0.0 N | 0 0.0   0.0 ENE | 66 0.00 15.7   0.0 69.8   0.5 0.00 55.7   3.2 67.7   9.1 9.4   0.9
ArrowCreek 5/7/26 2050 65.0   0.1 29   2 32.4   2.0 1.8   10.5 S | 174 5.5   8.3 W | 261 0.00 - 32.0   0.0 0.00 51.6   2.5 76.2   2.2 23.5   4.7
Tracy 5/7/26 2050 70.2   0.2 32   7 39.2   5.8 9.3   9.0 W | 277 14.9   13.3 W | 262 0.00 8.0   0.0 67.4   2.8 0.00 55.6   1.6 82.7   3.6 34.6   16.3
Virginia Highlands 5/7/26 2050 59.3   4.8 44   16 37.4   6.9 6.2   3.6 WSW | 242 9.4   5.1 SW | 225 0.00 8.2   0.2 56.9   1.5 0.00 53.3   2.2 72.0   1.9 19.0   0.4
Virginia City 5/7/26 2050 58.7   2.7 46   16 38.0   7.9 8.3   4.8 W | 273 12.7   6.8 W | 276 0.00 8.5   0.1 59.2   2.3 0.00 54.3   4.8 70.0   0.4 27.6   3.4
Six Mile Canyon 9/9/25 0630 60.2   9.6 37   6 33.7   4.8 4.1   2.5 W | 277 6.1   2.9 WNW | 286 0.00 12.5   0.0 75.5   0.7 0.00 57.9   7.6 64.4   1.9 7.0   3.9
Mt Rose Highway 4/30/26 0510 40.8   4.7 47   13 22.3   1.3 2.3   0.2 WSW | 243 4.8   2.1 WSW | 246 0.00 24.1   0.3 43.0   0.8 0.00 40.5   4.7 43.0   5.3 7.7   0.4
Pleasant Valley 5/7/26 2050 63.3   0.1 42   4 39.8   2.4 7.0   0.2 S | 180 12.3   2.7 SSE | 149 0.00 2.8   0.1 65.3   2.8 0.00 47.8   2.6 75.3   0.4 25.6   7.8
New Washoe City 5/7/26 2050 62.4   2.0 45   6 41.0   5.4 6.9   1.9 SW | 215 11.2   4.5 SSW | 203 0.00 4.5   0.0 60.8   2.4 0.00 47.3   2.0 74.2   0.8 27.3   6.3
Franktown Creek 5/7/26 2050 59.6   3.1 48   4 39.9   1.1 2.3   0.9 W | 268 11.2   8.8 WNW | 290 0.00 11.2   0.1 56.7   1.7 0.00 46.5   2.5 73.6   1.2 27.0   11.8
Musgrove Creek 5/7/26 2050 59.0   5.4 53   24 41.8   10.2 3.4   0.7 WSW | 240 6.5   2.9 W | 281 0.00 44.9   0.2 53.7   1.1 0.00 54.1   4.7 71.2   0.0 20.5   8.0
East Carson 11/23/24 0110 28.6   28.4 - - 4.7   11.0 SW | 220 14.7   10.1 SW | 219 0.02 - 50.9   0.1 0.02 -25.9   79.1 42.9   14.6 16.0   10.7
Kings Canyon 5/7/26 2050 62.4   0.1 49   14 43.0   8.9 10.5   6.6 SW | 222 19.5   11.8 SSW | 206 0.00 15.0   0.1 63.0   1.6 0.00 47.6   4.4 73.0   0.5 21.4   0.4
Carson City (Voltaire Canyon) 5/7/26 2050 62.8   8.2 46   23 41.7   10.8 4.2   4.4 WSW | 238 10.3   0.6 SW | 232 0.00 2.8   0.1 61.3   1.6 0.01 54.2   4.4 74.2   0.4 26.1   4.3
Jacks Valley 5/7/26 2050 62.7   2.8 46   11 41.8   4.7 9.7   2.2 W | 274 15.2   0.7 W | 270 0.00 13.8   0.2 71.8   2.7 0.00 49.2   4.7 74.0   0.6 31.4   10.8
Genoa 5/7/26 2050 61.2   5.8 44   9 39.3   0.4 1.2   0.3 SSW | 200 3.2   2.4 SSW | 206 0.00 8.3   1.0 66.6   2.3 0.00 47.8   2.0 76.7   0.5 21.2   9.2
South Genoa (Walleys Hot Springs) 5/7/26 2050 67.5   5.2 35   10 38.8   3.9 8.6   0.8 W | 273 14.2   1.4 WSW | 256 0.00 14.4   0.4 64.3   2.5 0.00 44.3   1.5 77.7   1.2 21.5   0.9
SW Gardnerville (HWY 88) 5/7/26 2050 61.5   2.0 45   1 40.0   2.4 7.8   3.4 N | 2 9.6   2.9 N | 3 0.00 3.4   0.1 59.6   2.7 0.00 41.2   0.4 75.9   1.4 27.4   13.8
Sheridan 5/7/26 2050 64.3   2.5 31   0 32.7   2.2 4.0   3.0 SSW | 204 5.7   6.1 SSW | 213 0.00 4.7   0.9 64.1   2.2 0.00 44.6   0.7 77.7   2.9 29.6   17.8
Ruhenstroth 5/7/26 2050 65.2   3.8 32   12 34.3   5.0 1.0   0.4 NNE | 23 4.0   1.4 ENE | 65 0.00 12.6   0.1 65.0   2.6 0.00 44.9   2.4 78.4   3.1 23.1   6.1
Double Spring 5/7/26 2050 59.1   0.4 46   7 38.2   3.6 4.1   1.9 NE | 34 8.6   3.0 N | 3 0.00 31.3   0.3 62.2   3.4 0.00 37.9   0.5 72.1   2.9 27.0   7.0
North Topaz Lake 5/7/26 2050 63.8   3.3 40   13 38.9   6.7 5.8   0.7 NW | 311 7.9   0.0 NW | 307 0.00 9.6   0.2 67.6   4.3 0.00 54.5   7.2 75.1   4.3 23.1   7.2
Wild Oat Mountain 5/7/26 2050 62.5   0.5 42   14 38.8   9.9 13.2   9.1 WSW | 249 19.9   13.8 WSW | 242 0.00 16.8   0.1 62.2   1.6 0.00 53.7   6.7 73.2   3.9 26.3   10.8
Smith Valley 5/7/26 2050 68.7   2.6 33   3 38.6   4.5 5.6   3.1 WNW | 282 11.8   0.0 WNW | 300 0.00 5.8   0.0 66.7   2.8 0.00 49.3   5.4 80.4   5.9 24.2   10.2
Pine Grove Mountain 5/7/26 2050 52.8   1.3 38   4 28.2   1.3 14.0   9.5 W | 267 19.8   13.9 W | 273 0.00 21.7   1.3 56.7   3.1 0.00 51.4   7.3 64.8   5.3 29.2   12.2
Paradise Hill 5/7/26 2050 74.0   4.8 16   4 25.6   1.5 7.7   5.2 NW | 315 12.2   8.4 NW | 316 0.00 8.0   0.0 64.2   0.5 0.00 45.6   0.7 81.7   5.2 33.4   14.4
Winnemucca 5/7/26 2050 73.9   9.5 18   5 27.4   1.5 8.9   1.3 NW | 306 15.0   5.3 WNW | 302 0.00 6.0   0.0 64.7   1.1 0.00 53.1   9.2 81.2   5.1 34.6   18.8
NE Elko 5/7/26 2050 64.6   6.3 22   9 24.7   3.2 0.7   2.0 SW | 228 3.6   0.5 SW | 220 0.00 12.5   0.0 65.1   0.7 0.00 37.9   5.2 76.4   4.1 31.6   8.3
North Elko 5/7/26 2050 65.7   7.0 25   10 28.9   2.1 9.0   0.1 NNW | 332 12.4   1.7 NNW | 328 0.00 28.5   0.1 60.6   2.4 0.00 49.1   9.7 74.7   5.5 34.0   9.4
South Elko 5/7/26 2050 - 65   25 - 5.9   2.1 W | 266 8.3   3.5 W | 268 0.00 18.6   0.0 62.9   2.1 0.00 55.3   10.5 - 31.4   10.3
Lamoille 1/28/26 1720 33.2   0.5 65   17 22.8   6.3 5.8   1.5 SSE | 166 7.7   1.9 SE | 139 0.00 12.2   0.0 33.4   0.1 0.02 23.5   2.0 36.5   5.9 25.6   17.4
Reid Gardner Sub 5/6/26 1130 73.4   2.5 26   2 36.5   0.4 2.6   2.7 SSW | 196 7.6   4.5 SW | 218 0.00 24.0   0.1 70.1   0.4 0.00 50.0   4.6 74.0   1.7 7.6   7.8
Corn Creek 5/7/26 2050 82.3   6.9 13   11 26.2   9.5 7.2   2.8 S | 186 9.7   3.0 S | 184 0.00 4.0   0.1 82.6   3.4 0.00 62.1   3.1 89.7   6.7 20.1   3.3
Lucky Strike 5/7/26 2050 70.3   5.8 14   9 18.2   7.1 10.6   4.8 SW | 228 13.5   6.0 SW | 233 0.00 4.6   0.1 77.3   3.4 0.00 57.1   4.2 77.5   6.4 19.8   9.8
Lower Angel Peak 5/7/26 2050 62.1   8.4 19   12 19.5   4.4 3.7   1.0 S | 191 7.1   0.2 S | 189 0.00 10.0   0.0 60.2   2.3 0.00 46.0   3.9 72.3   7.0 18.8   6.5
Angel Peak 5/7/26 2050 55.5   6.8 20   12 14.9   5.3 12.0   9.1 W | 278 25.0   17.4 WNW | 288 0.00 3.6   0.0 60.3   3.9 0.00 46.4   9.8 63.4   7.2 25.0   6.2
Upper Kyle Canyon 5/7/26 2050 57.3   7.4 20   16 16.7   7.2 4.0   1.3 NNW | 338 8.2   3.0 N | 7 0.00 13.4   0.1 59.3   2.2 0.00 44.0   4.8 66.5   6.8 17.0   6.0
Mt Charleston 5/7/26 2050 55.8   4.5 23   12 18.8   5.9 1.6   0.9 SSW | 199 3.7   1.0 S | 188 0.00 18.2   0.0 50.5   1.3 0.00 46.2   7.6 66.9   6.3 13.4   6.2
Mid Kyle Canyon 5/7/26 2050 60.7   5.7 21   10 20.6   4.3 9.4   0.8 WNW | 299 13.5   1.2 WNW | 285 0.00 7.1   0.1 63.7   3.2 0.00 48.8   7.3 72.6   6.3 20.2   5.1
Blue Diamond 5/7/26 2050 80.1   4.4 14   9 27.1   8.8 2.7   1.1 NW | 317 4.8   0.6 NNW | 336 0.00 3.1   0.0 76.2   0.2 0.00 50.1   5.8 87.0   7.8 18.5   0.2
Artesian Sub 5/7/26 2050 89.4   5.2 12   6 30.8   6.4 3.2   2.5 SE | 133 8.1   5.2 E | 98 0.00 13.2   0.0 74.3   0.2 0.00 66.4   2.8 95.5   7.7 10.7   2.0
North Henderson 5/7/26 2050 88.9   6.5 13   7 32.3   4.9 2.5   1.8 NNE | 29 5.0   2.5 NE | 49 0.00 8.7   0.1 80.2   1.1 0.00 65.3   2.6 94.5   7.1 12.3   3.8
Sandy Valley 5/7/26 2050 83.2   5.8 15   8 31.3   6.1 0.4   3.2 WSW | 254 2.5   2.9 WSW | 248 0.00 4.6   0.1 85.7   2.5 0.00 59.3   5.8 90.0   8.0 19.1   2.5
Searchlight 5/7/26 2100 73.6   6.8 16   10 24.4   6.7 2.3   0.6 NW | 314 3.2   1.2 NNW | 332 0.00 4.8   0.1 83.6   3.4 0.00 56.2   8.4 86.9   8.7 22.6   0.7
Laughlin 5/7/26 2050 92.1   6.4 11   11 30.5   12.6 0.4   1.5 W | 281 2.6   0.7 W | 280 0.00 4.2   0.1 86.1   3.1 0.00 68.9   6.5 99.7   7.4 23.0   4.2
31Mission Hills 5/7/26 2050 86.1   6.1 12   6 28.0   4.9 7.0   2.2 S | 178 9.2   3.2 S | 185 0.00 4.0   0.1 92.8   3.9 0.00 67.9   8.2 91.2   7.6 17.9   4.0
32 Enterprise Sierra Cliffs 5/7/26 2050 83.0   6.5 12   9 24.3   8.6 8.1   2.5 SW | 224 11.0   3.7 SW | 223 0.00 2.4   0.1 85.6   4.2 0.00 66.9   6.0 88.8   7.1 14.3   0.5
Max     92.1 74 43.6 25.3 - 30.4 - 0.00 44.9 92.8 0.03 68.9 99.7 36.8
Avg     64.1 38 34.0 5.8 - 10.0 - 0.00 13.2 61.9 - - - -
Min     49.4 11 14.9 0.0 - 0.0 - 0.00 1.8 32.0 0.00 36.9 61.8 6.6

Latest Observation

67 Stations

Daily Data
as of 5/7/26 8:59 PM PDT
Station Date Daily Max Temp (°F) Daily Min Temp (°F) Daily Max RH (%) Daily Min RH (%) Wind Spd (mph) Wind Dir (°) Daily Max Wind (mph) Max Wind Dir (°) Time of Max Wind Daily Rain (In) Weekly Precip (In) Season Precip (In) Soil Moist (%) Fuel Temp (°F) Fuel Moisture (%) MinBV Day (V)
Hobart Mills 12/23/25 51.8   11.3 33.9   2.1 88   12 42   34 2.1   1.7 SW | 224 18.4   8.6 WSW | 240 2307 0.65 6.21 15.12 - 37.6   2.8 42   19 8.0   0.7
Prosser Dam 5/6/26 70.8   8.4 36.0   0.7 99   1 26   14 2.9   0.3 NNW | 334 20.1   3.0 NE | 39 1256 0.01 0.83 8.47 24.9   0.1 58.0   6.5 17   16 12.6   0.1
West Incline Village 5/6/26 63.0   11.5 41.7   9.2 94   6 26   35 2.3   0.8 NE | 53 12.9   3.6 W | 276 1055 0.00 1.36 7.94 34.6   0.9 56.6   9.9 18   34 12.5   0.2
Incline Village (Fairview Blvd) 5/6/26 63.7   11.8 41.2   7.7 97   3 29   41 1.0   0.5 SW | 216 10.2   2.1 WSW | 241 1616 0.00 1.30 7.48 27.3   1.6 56.7   11.8 19   19 12.6   0.1
Incline Village (Diamond Peak) 5/6/26 60.4   10.9 42.7   10.9 86   13 31   44 0.0   1.2 N | 0 10.4   1.9 S | 187 1356 0.00 0.10 0.51 9.8   0.3 -11.5 - 12.3   0.1
Incline Village (Mill Creek) 5/6/26 65.4   12.3 40.4   6.6 94   5 26   39 0.7   0.3 WNW | 295 8.6   0.1 WNW | 302 1421 0.00 1.27 7.18 11.4   0.1 - - 12.4   0.1
Incline Village (Lakeshore Blvd) 5/6/26 61.8   10.3 36.4   0.6 99   1 42   27 1.2   0.6 SSE | 157 6.1   0.4 SSE | 154 1155 0.00 1.15 7.20 34.2   2.4 59.2   8.0 19   5 12.4   0.1
Glenbrook 5/6/26 65.1   10.3 38.4   4.3 98   1 31   25 1.5   0.1 SW | 231 7.8   2.1 W | 262 1408 0.00 1.09 5.88 44.3   0.0 52.7   8.0 20   23 12.6   0.2
Zephyr Cove 5/6/26 65.1   10.7 41.6   8.9 97   3 28   31 0.0   0.1 N | 0 5.0   2.4 SSW | 209 1359 0.00 0.02 0.68 - 46.6   5.9 - 12.4   0.0
Kingsbury Grade 5/6/26 65.9   10.1 38.1   6.1 96   2 27   28 1.2   0.5 W | 261 9.1   2.4 SW | 219 1244 0.00 0.95 5.82 6.8   0.7 53.8   11.2 15   22 12.5   0.1
South Daggett Pass (Ridge) 5/6/26 63.3   11.4 41.4   10.1 92   8 26   35 1.8   0.4 W | 280 10.9   0.7 SSE | 147 1121 0.00 0.73 4.05 6.8   0.2 53.8   12.4 16   17 12.5   0.1
Palomino Valley 5/6/26 78.4   6.4 45.8   0.4 82   4 15   11 3.0   0.3 ENE | 72 20.7   0.9 NE | 38 1436 0.00 0.27 1.41 6.9   0.1 65.4   5.0 2   0 12.6   0.0
East Cold Springs 5/6/26 73.1   6.5 47.4   7.1 81   10 20   15 7.3   0.1 W | 276 20.4   0.8 SW | 234 0140 0.00 0.68 2.09 1.7   0.1 64.9   8.3 13   20 12.6   0.1
Peavine 5/6/26 69.6   7.2 49.4   8.8 69   24 21   19 4.7   0.0 N | 349 18.5   1.6 NNW | 327 1300 0.00 0.67 2.14 - - - 12.5   0.1
West Verdi Peak 5/6/26 69.9   7.3 43.0   5.9 88   7 19   21 2.6   0.3 NW | 311 16.2   1.2 W | 277 1315 0.00 0.78 6.39 22.2   0.1 63.1   7.8 13   16 12.6   0.1
West Verdi 5/6/26 74.3   6.1 45.4   5.2 84   10 17   17 3.2   0.3 NW | 315 16.3   3.0 NNW | 335 1449 0.00 0.65 5.92 8.2   0.1 65.3   7.4 14   18 12.6   0.1
South Verdi 5/6/26 72.3   6.6 46.5   5.4 76   10 20   15 8.6   1.9 WSW | 248 22.5   0.9 WSW | 248 2343 0.00 0.57 4.81 16.9   0.0 66.6   9.6 10   8 12.6   0.1
Northwest Reno 5/6/26 75.0   7.5 53.2   9.7 68   21 18   17 8.8   3.6 NW | 323 27.2   5.0 W | 277 2234 0.00 0.33 1.33 23.6   0.2 -17.8 - 12.6   0.1
North Lawton 5/6/26 74.3   7.5 48.7   6.1 73   11 18   18 6.3   0.7 W | 262 26.8   10.1 WNW | 297 1343 0.00 0.44 2.14 - - - 12.6   0.1
West Reno (Mogul) 5/6/26 74.3   7.6 49.5   6.9 72   12 16   19 5.0   1.7 WNW | 290 22.4   3.6 N | 11 1238 0.00 0.34 4.24 38.0   0.4 68.3   10.6 5   12 12.5   0.1
Caughlin (Hunter Lake Trail) 9/15/25 78.6   1.3 52.5   3.7 58   7 23   2 4.2   2.5 S | 173 13.0   20.5 NNE | 31 1309 0.00 0.32 8.05 15.7   0.1 67.4   0.5 7   1 12.7   0.0
ArrowCreek 5/6/26 73.9   6.8 49.1   5.7 73   20 18   15 5.7   2.6 WNW | 287 18.8   0.1 N | 0 1018 0.00 0.69 5.25 - - - 12.4   0.1
Tracy 5/6/26 79.1   8.2 53.9   6.1 68   13 12   19 5.6   0.7 W | 266 18.4   0.6 N | 349 1510 0.00 0.37 1.23 7.9   0.0 69.8   9.1 11   9 12.7   0.1
Virginia Highlands 5/6/26 70.0   8.1 51.0   10.9 66   33 17   20 3.9   0.9 NW | 312 18.6   3.6 NNW | 343 1414 0.00 0.44 2.15 8.6   0.6 63.4   11.4 13   20 12.6   0.1
Virginia City 5/6/26 69.7   13.0 49.5   10.9 69   30 17   38 8.2   3.8 NNW | 344 24.2   3.1 NW | 324 0516 0.00 0.41 1.86 8.3   0.1 61.8   10.9 10   19 12.7   0.2
Six Mile Canyon 9/8/25 98.8   16.5 50.2   7.6 44   3 11   1 7.2   0.3 WSW | 252 27.0   4.6 SSE | 159 1325 0.00 0.00 0.89 12.6   0.1 69.7   3.0 4   0 12.4   0.2
Mt Rose Highway 4/29/26 56.6   7.9 35.6   4.1 63   16 31   6 2.2   0.0 NW | 305 10.8   4.2 NE | 35 1152 0.00 0.08 4.93 24.3   0.3 47.6   8.0 3   0 12.4   0.0
Pleasant Valley 5/6/26 75.6   9.2 45.1   1.8 82   11 18   21 3.4   0.4 N | 11 17.8   3.0 ENE | 71 1317 0.00 0.49 2.52 2.8   0.0 66.0   9.5 13   19 12.6   0.1
New Washoe City 5/6/26 73.4   9.1 45.3   2.5 82   14 16   26 4.6   2.4 NNE | 33 21.0   2.5 NE | 51 1002 0.00 0.45 1.76 4.4   0.0 63.2   7.5 13   26 12.6   0.1
Franktown Creek 5/6/26 74.8   9.7 44.0   1.2 84   14 19   23 1.7   0.2 N | 11 15.2   2.8 NE | 41 1325 0.00 0.64 5.97 11.2   0.2 58.6   5.9 14   15 12.7   0.1
Musgrove Creek 5/6/26 71.3   8.6 49.4   8.5 69   25 20   22 2.4   0.8 SW | 216 12.5   2.1 NNE | 26 1355 0.00 0.97 8.00 45.1   0.1 62.2   8.8 18   18 12.6   0.2
East Carson 11/22/24 63.8   0.3 41.7   4.6 85   21 21   9 14.9   6.0 SW | 224 46.6   12.7 S | 171 1835 0.05 0.05 4.48 2.5   0.0 53.9   0.3 9   0 12.6   0.0
Kings Canyon 5/6/26 72.5   9.3 43.3   1.8 81   17 17   28 4.2   1.5 WSW | 255 21.7   6.1 NNW | 348 1004 0.00 0.66 4.52 15.2   0.0 65.3   9.8 10   22 12.6   0.1
Carson City (Voltaire Canyon) 5/6/26 73.8   11.1 49.8   7.7 73   22 16   30 7.8   0.0 W | 267 21.7   1.9 NNW | 327 1304 0.00 1.23 1.32 2.8   0.0 - - 12.7   0.1
Jacks Valley 5/6/26 73.4   11.6 44.5   3.0 82   13 16   31 4.2   0.8 NNW | 334 20.6   4.2 NE | 40 1400 0.00 0.52 2.50 13.8   1.1 63.8   10.7 14   21 12.6   0.1
Genoa 5/6/26 76.2   11.5 45.8   2.6 84   14 16   31 1.0   0.6 WNW | 292 12.0   2.1 WNW | 285 1422 0.00 0.48 5.22 9.9   1.7 62.8   11.2 18   22 12.3   0.1
South Genoa (Walleys Hot Springs) 5/6/26 76.5   11.9 42.8   1.4 94   1 13   32 3.3   0.2 NNW | 329 20.6   3.0 W | 274 2006 0.00 0.40 3.35 13.9   0.0 65.7   10.8 12   14 12.5   0.1
SW Gardnerville (HWY 88) 5/6/26 74.5   11.0 41.6   1.6 91   5 16   27 3.7   0.3 W | 266 13.7   1.9 N | 353 1422 0.00 0.04 0.60 3.4   0.0 61.7   8.0 14   16 12.5   0.1
Sheridan 5/6/26 74.8   10.6 43.8   0.7 83   12 16   24 3.0   0.3 WNW | 302 11.8   0.5 NNE | 22 1442 0.00 0.40 3.46 5.8   0.2 65.8   10.9 13   15 12.6   0.1
Ruhenstroth 5/6/26 75.3   11.9 42.6   0.4 86   8 17   28 3.0   0.4 SW | 214 17.0   0.2 NW | 314 1548 0.00 0.64 2.06 12.6   0.0 61.4   8.9 14   21 12.6   0.1
Double Spring 5/6/26 69.2   13.3 37.5   0.7 92   4 21   36 4.6   0.1 NNW | 331 20.0   5.8 NNW | 331 1202 0.00 0.90 2.44 30.6   1.2 57.8   9.6 17   22 12.6   0.1
North Topaz Lake 5/6/26 70.8   13.2 47.3   7.1 72   24 21   29 3.3   0.1 NE | 52 15.9   16.1 SE | 138 1747 0.00 0.59 1.68 9.3   0.3 62.3   13.5 15   21 12.5   0.0
Wild Oat Mountain 5/6/26 69.4   12.6 47.0   8.9 70   24 24   31 3.2   0.4 NNE | 12 15.5   5.0 NE | 53 1446 0.00 0.52 1.77 16.6   0.1 61.8   13.0 13   17 12.6   0.0
Smith Valley 5/6/26 74.5   11.5 43.9   0.4 86   6 24   18 3.6   0.7 NW | 317 15.4   9.7 W | 270 2112 0.00 0.51 1.37 5.8   0.0 64.4   8.4 18   13 12.6   0.0
Pine Grove Mountain 5/6/26 59.4   11.9 44.1   12.4 64   34 29   22 5.0   0.8 NNW | 339 17.0   12.4 NW | 321 1412 0.00 0.57 0.91 23.3   3.1 53.4   13.2 18   14 12.7   0.2
Paradise Hill 5/6/26 76.6   2.9 44.9   1.4 59   23 17   2 3.8   2.6 WSW | 243 19.0   7.0 W | 274 1638 0.00 0.00 2.33 8.0   0.0 68.0   4.5 6   1 12.6   0.0
Winnemucca 5/6/26 76.1   3.8 43.9   0.5 74   12 14   9 4.6   2.7 S | 170 15.9   8.4 N | 349 1321 0.00 0.00 2.90 5.9   0.0 69.5   6.0 3   1 12.6   0.0
NE Elko 5/6/26 72.3   10.3 32.8   8.7 94   7 18   26 4.0   4.5 N | 11 23.2   0.6 SE | 131 1509 0.00 0.04 2.33 12.4   0.0 57.5   3.2 10   1 12.5   0.1
North Elko 5/6/26 69.1   7.9 39.4   3.6 90   5 21   22 5.8   3.0 W | 268 24.6   4.2 SW | 225 1407 0.00 0.44 2.48 28.3   0.2 59.0   8.1 12   3 12.5   0.0
South Elko 5/6/26 - 44.8   1.4 100   0 27   19 4.8   1.8 NW | 305 21.1   6.6 NW | 308 1534 0.00 0.04 2.71 18.4   0.2 58.3   8.1 19   2 12.5   0.0
Lamoille 1/27/26 42.4   2.7 21.5   6.4 60   0 25   6 2.6   0.5 SE | 125 8.2   4.1 SE | 139 0137 0.00 0.00 0.67 12.3   0.2 26.9   1.3 11   0 8.5   2.8
Reid Gardner Sub 5/5/26 77.9   2.7 54.6   9.7 48   11 18   3 4.5   4.0 SSW | 203 15.5   10.7 SE | 134 1426 0.00 0.00 0.56 24.6   0.3 74.6   1.3 2   0 12.6   0.0
Corn Creek 5/6/26 83.0   11.8 59.1   6.9 36   17 16   7 8.5   2.5 WSW | 257 23.5   4.8 W | 270 1032 0.00 0.00 0.63 3.9   0.0 74.4   6.6 2   0 12.5   0.0
Lucky Strike 5/6/26 71.1   11.8 52.9   10.5 44   11 16   10 10.0   5.0 NW | 304 29.6   11.3 WNW | 288 1525 0.00 0.00 1.21 4.5   0.0 66.5   10.2 4   0 12.5   0.0
Lower Angel Peak 5/6/26 65.3   11.1 42.1   8.5 61   3 21   10 5.4   1.3 W | 261 25.2   9.4 NNW | 334 1444 0.00 0.00 1.93 10.1   0.1 57.8   8.6 4   1 12.6   0.0
Angel Peak 5/6/26 56.2   11.5 36.6   7.1 73   3 26   11 5.2   0.3 NNW | 346 31.2   4.5 WNW | 300 0101 0.00 0.02 84.72 3.5   0.0 50.9   11.7 7   1 12.5   0.0
Upper Kyle Canyon 5/6/26 59.7   13.1 39.2   8.7 64   4 18   16 4.7   0.5 NW | 312 23.0   8.0 SSE | 154 1446 0.00 0.00 5.08 13.6   0.1 59.2   13.5 7   0 12.7   0.1
Mt Charleston 5/6/26 60.7   12.7 38.6   7.4 64   4 17   17 2.9   0.6 WSW | 243 19.6   4.0 W | 277 1426 0.00 0.00 5.28 18.3   0.0 58.9   8.0 27   0 12.5   0.0
Mid Kyle Canyon 5/6/26 66.4   12.1 41.6   6.8 61   5 19   16 7.6   1.1 NNW | 327 25.3   6.3 N | 354 1442 0.00 0.00 2.08 7.0   0.0 62.3   8.6 6   1 12.7   0.0
Blue Diamond 5/6/26 79.2   9.8 55.8   7.8 40   17 20   5 3.0   3.0 WNW | 298 18.8   3.0 SE | 135 1433 0.00 0.00 0.85 2.9   0.6 - - 12.8   0.0
Artesian Sub 5/6/26 87.8   9.5 63.6   4.5 38   7 17   0 2.0   2.2 ESE | 110 12.7   3.7 E | 100 1414 0.00 0.00 0.35 13.3   0.1 - 0   0 12.7   0.0
North Henderson 5/6/26 87.4   9.5 62.7   1.2 38   3 17   0 3.4   2.5 ENE | 64 16.2   3.5 SW | 218 0302 0.00 0.00 0.52 8.8   0.0 79.8   4.8 6   0 12.7   0.0
Sandy Valley 5/6/26 82.0   12.1 53.6   2.6 55   7 22   5 3.9   0.5 NNW | 329 16.6   2.1 ESE | 120 1407 0.00 0.00 0.62 4.5   0.0 73.0   7.7 5   0 12.7   0.0
Searchlight 5/6/26 78.2   11.0 47.8   1.0 60   8 19   8 3.8   0.2 NNE | 28 21.9   6.1 N | 2 1607 0.00 0.00 0.51 4.6   0.0 71.9   9.3 2   0 12.5   0.0
Laughlin 5/6/26 92.3   11.9 62.4   0.7 46   3 14   7 3.6   2.6 SW | 217 18.8   1.2 NNE | 24 1659 0.00 0.00 0.29 4.1   0.0 79.5   5.2 5   0 12.8   0.0
31Mission Hills 5/6/26 83.6   9.6 59.7   9.7 38   4 16   2 6.0   0.5 SSE | 166 21.9   2.9 N | 2 1325 0.00 - 0.00 3.7   0.1 77.8   3.2 6   0 13.1   0.0
32 Enterprise Sierra Cliffs 5/6/26 81.7   12.1 60.9   2.7 35   6 16   5 5.8   2.7 S | 189 14.8   3.1 W | 281 1244 0.00 - 0.00 2.2   0.0 74.5   11.7 7   0 13.0   0.0
Max   92.3 63.6 100 42 10.0 - 31.2 - - 0.01 - 84.72 45.1 79.8 27 13.1
Avg   - - - - 4.1 - - - - - - - 13.3 60.2 11 -
Min   56.2 32.8 35 12 0.0 - 5.0 - - 0.00 - 0.00 1.7 -17.8 0 12.3

Fosberg 6Hr Max

Map

Hourly Data

Fosberg 6Hr Max

Map

Hourly Data